sensor_id;sensor_type;location;lat;lon;timestamp;P1;durP1;ratioP1;P2;durP2;ratioP2
18125;SDS011;53956;52.442;13.284;2023-04-06T00:02:26;11.73;;;9.40;;
18125;SDS011;53956;52.442;13.284;2023-04-06T00:04:52;17.07;;;8.80;;
18125;SDS011;53956;52.442;13.284;2023-04-06T00:07:19;11.90;;;9.17;;
18125;SDS011;53956;52.442;13.284;2023-04-06T00:09:47;12.07;;;8.97;;
18125;SDS011;53956;52.442;13.284;2023-04-06T00:12:14;13.13;;;9.57;;
18125;SDS011;53956;52.442;13.284;2023-04-06T00:14:41;14.07;;;9.83;;
18125;SDS011;53956;52.442;13.284;2023-04-06T00:17:07;13.33;;;9.50;;
18125;SDS011;53956;52.442;13.284;2023-04-06T00:19:34;12.03;;;9.70;;
18125;SDS011;53956;52.442;13.284;2023-04-06T00:22:01;14.30;;;9.73;;
18125;SDS011;53956;52.442;13.284;2023-04-06T00:24:28;14.23;;;10.50;;
18125;SDS011;53956;52.442;13.284;2023-04-06T00:26:56;14.53;;;10.50;;
18125;SDS011;53956;52.442;13.284;2023-04-06T00:29:22;15.57;;;10.27;;
18125;SDS011;53956;52.442;13.284;2023-04-06T00:31:49;12.73;;;9.47;;
18125;SDS011;53956;52.442;13.284;2023-04-06T00:34:16;13.40;;;9.57;;
18125;SDS011;53956;52.442;13.284;2023-04-06T00:36:42;13.00;;;9.30;;
18125;SDS011;53956;52.442;13.284;2023-04-06T00:39:09;12.93;;;9.67;;
18125;SDS011;53956;52.442;13.284;2023-04-06T00:41:37;11.90;;;9.23;;
18125;SDS011;53956;52.442;13.284;2023-04-06T00:44:06;12.30;;;9.53;;
18125;SDS011;53956;52.442;13.284;2023-04-06T00:46:33;12.27;;;8.97;;
18125;SDS011;53956;52.442;13.284;2023-04-06T00:49:01;11.17;;;9.33;;
18125;SDS011;53956;52.442;13.284;2023-04-06T00:51:28;14.17;;;9.00;;
18125;SDS011;53956;52.442;13.284;2023-04-06T00:53:54;12.23;;;9.03;;
18125;SDS011;53956;52.442;13.284;2023-04-06T00:56:22;11.27;;;8.97;;
18125;SDS011;53956;52.442;13.284;2023-04-06T00:58:52;11.80;;;9.07;;
18125;SDS011;53956;52.442;13.284;2023-04-06T01:01:20;10.43;;;8.47;;
18125;SDS011;53956;52.442;13.284;2023-04-06T01:03:49;12.77;;;8.77;;
18125;SDS011;53956;52.442;13.284;2023-04-06T01:06:18;11.27;;;8.67;;
18125;SDS011;53956;52.442;13.284;2023-04-06T01:08:54;10.57;;;9.20;;
18125;SDS011;53956;52.442;13.284;2023-04-06T01:11:24;11.77;;;8.97;;
18125;SDS011;53956;52.442;13.284;2023-04-06T01:13:51;14.00;;;8.50;;
18125;SDS011;53956;52.442;13.284;2023-04-06T01:16:27;11.93;;;9.10;;
18125;SDS011;53956;52.442;13.284;2023-04-06T01:19:08;13.70;;;8.90;;
18125;SDS011;53956;52.442;13.284;2023-04-06T01:21:35;11.10;;;8.57;;
18125;SDS011;53956;52.442;13.284;2023-04-06T01:24:20;12.80;;;8.77;;
18125;SDS011;53956;52.442;13.284;2023-04-06T01:27:08;11.47;;;8.97;;
18125;SDS011;53956;52.442;13.284;2023-04-06T01:30:01;14.73;;;9.63;;
18125;SDS011;53956;52.442;13.284;2023-04-06T01:32:39;13.67;;;8.83;;
18125;SDS011;53956;52.442;13.284;2023-04-06T01:35:07;11.30;;;9.13;;
18125;SDS011;53956;52.442;13.284;2023-04-06T01:37:40;14.00;;;9.50;;
18125;SDS011;53956;52.442;13.284;2023-04-06T01:40:12;11.37;;;9.23;;
18125;SDS011;53956;52.442;13.284;2023-04-06T01:42:48;13.67;;;9.37;;
18125;SDS011;53956;52.442;13.284;2023-04-06T01:45:23;12.23;;;9.47;;
18125;SDS011;53956;52.442;13.284;2023-04-06T01:47:53;15.67;;;9.27;;
18125;SDS011;53956;52.442;13.284;2023-04-06T01:50:23;12.37;;;8.90;;
18125;SDS011;53956;52.442;13.284;2023-04-06T01:52:50;11.20;;;8.93;;
18125;SDS011;53956;52.442;13.284;2023-04-06T01:55:18;13.37;;;9.53;;
18125;SDS011;53956;52.442;13.284;2023-04-06T01:58:02;12.20;;;8.43;;
18125;SDS011;53956;52.442;13.284;2023-04-06T02:00:33;11.60;;;9.13;;
18125;SDS011;53956;52.442;13.284;2023-04-06T02:03:00;12.83;;;9.23;;
18125;SDS011;53956;52.442;13.284;2023-04-06T02:05:29;12.57;;;9.17;;
18125;SDS011;53956;52.442;13.284;2023-04-06T02:07:59;12.17;;;9.40;;
18125;SDS011;53956;52.442;13.284;2023-04-06T02:10:32;10.73;;;9.30;;
18125;SDS011;53956;52.442;13.284;2023-04-06T02:13:06;14.70;;;9.63;;
18125;SDS011;53956;52.442;13.284;2023-04-06T02:15:34;11.17;;;8.93;;
18125;SDS011;53956;52.442;13.284;2023-04-06T02:18:01;10.37;;;9.20;;
18125;SDS011;53956;52.442;13.284;2023-04-06T02:20:28;14.27;;;9.43;;
18125;SDS011;53956;52.442;13.284;2023-04-06T02:22:56;12.30;;;9.00;;
18125;SDS011;53956;52.442;13.284;2023-04-06T02:25:24;14.20;;;9.70;;
18125;SDS011;53956;52.442;13.284;2023-04-06T02:27:52;13.07;;;10.00;;
18125;SDS011;53956;52.442;13.284;2023-04-06T02:30:19;13.50;;;9.43;;
18125;SDS011;53956;52.442;13.284;2023-04-06T02:32:47;13.20;;;9.87;;
18125;SDS011;53956;52.442;13.284;2023-04-06T02:35:15;12.90;;;9.57;;
18125;SDS011;53956;52.442;13.284;2023-04-06T02:37:42;10.90;;;9.30;;
18125;SDS011;53956;52.442;13.284;2023-04-06T02:40:09;12.73;;;9.97;;
18125;SDS011;53956;52.442;13.284;2023-04-06T02:42:36;13.67;;;10.00;;
18125;SDS011;53956;52.442;13.284;2023-04-06T02:45:06;13.67;;;10.00;;
18125;SDS011;53956;52.442;13.284;2023-04-06T02:47:39;13.70;;;10.40;;
18125;SDS011;53956;52.442;13.284;2023-04-06T02:50:07;13.87;;;10.27;;
18125;SDS011;53956;52.442;13.284;2023-04-06T02:52:41;11.70;;;9.80;;
18125;SDS011;53956;52.442;13.284;2023-04-06T02:55:09;14.60;;;10.77;;
18125;SDS011;53956;52.442;13.284;2023-04-06T02:57:36;13.50;;;10.23;;
18125;SDS011;53956;52.442;13.284;2023-04-06T03:00:03;13.07;;;10.40;;
18125;SDS011;53956;52.442;13.284;2023-04-06T03:02:38;14.03;;;10.23;;
18125;SDS011;53956;52.442;13.284;2023-04-06T03:05:09;13.47;;;9.90;;
18125;SDS011;53956;52.442;13.284;2023-04-06T03:07:40;14.40;;;10.20;;
18125;SDS011;53956;52.442;13.284;2023-04-06T03:10:11;14.43;;;9.90;;
18125;SDS011;53956;52.442;13.284;2023-04-06T03:12:38;11.80;;;9.77;;
18125;SDS011;53956;52.442;13.284;2023-04-06T03:15:25;13.70;;;10.27;;
18125;SDS011;53956;52.442;13.284;2023-04-06T03:18:05;12.60;;;9.70;;
18125;SDS011;53956;52.442;13.284;2023-04-06T03:20:39;16.73;;;9.87;;
18125;SDS011;53956;52.442;13.284;2023-04-06T03:23:08;14.47;;;10.10;;
18125;SDS011;53956;52.442;13.284;2023-04-06T03:25:39;15.50;;;10.57;;
18125;SDS011;53956;52.442;13.284;2023-04-06T03:28:08;12.37;;;9.13;;
18125;SDS011;53956;52.442;13.284;2023-04-06T03:30:43;13.20;;;9.83;;
18125;SDS011;53956;52.442;13.284;2023-04-06T03:33:11;12.60;;;9.57;;
18125;SDS011;53956;52.442;13.284;2023-04-06T03:35:47;15.80;;;9.97;;
18125;SDS011;53956;52.442;13.284;2023-04-06T03:38:14;12.10;;;10.03;;
18125;SDS011;53956;52.442;13.284;2023-04-06T03:40:40;12.10;;;10.03;;
18125;SDS011;53956;52.442;13.284;2023-04-06T03:43:07;13.97;;;10.40;;
18125;SDS011;53956;52.442;13.284;2023-04-06T03:45:36;15.77;;;10.50;;
18125;SDS011;53956;52.442;13.284;2023-04-06T03:48:05;12.63;;;10.27;;
18125;SDS011;53956;52.442;13.284;2023-04-06T03:50:34;12.97;;;9.20;;
18125;SDS011;53956;52.442;13.284;2023-04-06T03:53:01;13.43;;;10.03;;
18125;SDS011;53956;52.442;13.284;2023-04-06T03:55:28;12.50;;;9.57;;
18125;SDS011;53956;52.442;13.284;2023-04-06T03:57:55;13.47;;;9.13;;
18125;SDS011;53956;52.442;13.284;2023-04-06T04:00:23;11.20;;;9.37;;
18125;SDS011;53956;52.442;13.284;2023-04-06T04:02:50;11.43;;;9.13;;
18125;SDS011;53956;52.442;13.284;2023-04-06T04:05:18;13.10;;;9.30;;
18125;SDS011;53956;52.442;13.284;2023-04-06T04:07:50;12.83;;;9.90;;
18125;SDS011;53956;52.442;13.284;2023-04-06T04:10:16;12.67;;;9.37;;
18125;SDS011;53956;52.442;13.284;2023-04-06T04:12:43;13.07;;;9.80;;
18125;SDS011;53956;52.442;13.284;2023-04-06T04:15:10;13.33;;;10.00;;
18125;SDS011;53956;52.442;13.284;2023-04-06T04:17:36;15.60;;;10.03;;
18125;SDS011;53956;52.442;13.284;2023-04-06T04:20:04;15.27;;;10.77;;
18125;SDS011;53956;52.442;13.284;2023-04-06T04:22:33;11.60;;;10.33;;
18125;SDS011;53956;52.442;13.284;2023-04-06T04:25:00;13.97;;;10.13;;
18125;SDS011;53956;52.442;13.284;2023-04-06T04:27:29;15.63;;;10.40;;
18125;SDS011;53956;52.442;13.284;2023-04-06T04:29:56;13.67;;;10.40;;
18125;SDS011;53956;52.442;13.284;2023-04-06T04:32:23;14.00;;;10.30;;
18125;SDS011;53956;52.442;13.284;2023-04-06T04:34:53;16.87;;;10.63;;
18125;SDS011;53956;52.442;13.284;2023-04-06T04:37:31;13.37;;;10.87;;
18125;SDS011;53956;52.442;13.284;2023-04-06T04:40:01;15.47;;;10.77;;
18125;SDS011;53956;52.442;13.284;2023-04-06T04:42:31;13.10;;;10.83;;
18125;SDS011;53956;52.442;13.284;2023-04-06T04:44:59;16.70;;;11.00;;
18125;SDS011;53956;52.442;13.284;2023-04-06T04:47:33;15.53;;;11.20;;
18125;SDS011;53956;52.442;13.284;2023-04-06T04:49:59;14.70;;;10.77;;
18125;SDS011;53956;52.442;13.284;2023-04-06T04:52:26;13.37;;;10.83;;
18125;SDS011;53956;52.442;13.284;2023-04-06T04:55:00;14.90;;;11.27;;
18125;SDS011;53956;52.442;13.284;2023-04-06T04:57:28;15.63;;;11.53;;
18125;SDS011;53956;52.442;13.284;2023-04-06T04:59:54;14.77;;;11.10;;
18125;SDS011;53956;52.442;13.284;2023-04-06T05:02:22;18.63;;;11.63;;
18125;SDS011;53956;52.442;13.284;2023-04-06T05:04:58;13.27;;;11.40;;
18125;SDS011;53956;52.442;13.284;2023-04-06T05:07:27;14.93;;;11.60;;
18125;SDS011;53956;52.442;13.284;2023-04-06T05:09:55;15.77;;;11.47;;
18125;SDS011;53956;52.442;13.284;2023-04-06T05:12:27;13.47;;;11.30;;
18125;SDS011;53956;52.442;13.284;2023-04-06T05:15:03;16.10;;;12.00;;
18125;SDS011;53956;52.442;13.284;2023-04-06T05:17:30;15.20;;;11.27;;
18125;SDS011;53956;52.442;13.284;2023-04-06T05:19:58;14.80;;;12.00;;
18125;SDS011;53956;52.442;13.284;2023-04-06T05:22:26;17.50;;;12.17;;
18125;SDS011;53956;52.442;13.284;2023-04-06T05:25:02;15.20;;;12.47;;
18125;SDS011;53956;52.442;13.284;2023-04-06T05:27:31;16.00;;;13.07;;
18125;SDS011;53956;52.442;13.284;2023-04-06T05:30:03;17.80;;;12.90;;
18125;SDS011;53956;52.442;13.284;2023-04-06T05:32:36;15.73;;;13.63;;
18125;SDS011;53956;52.442;13.284;2023-04-06T05:35:03;16.60;;;13.60;;
18125;SDS011;53956;52.442;13.284;2023-04-06T05:37:32;19.37;;;14.40;;
18125;SDS011;53956;52.442;13.284;2023-04-06T05:39:59;17.97;;;14.27;;
18125;SDS011;53956;52.442;13.284;2023-04-06T05:42:27;18.57;;;13.87;;
18125;SDS011;53956;52.442;13.284;2023-04-06T05:44:59;18.63;;;14.37;;
18125;SDS011;53956;52.442;13.284;2023-04-06T05:47:26;21.77;;;15.53;;
18125;SDS011;53956;52.442;13.284;2023-04-06T05:50:01;17.97;;;15.00;;
18125;SDS011;53956;52.442;13.284;2023-04-06T05:52:32;19.77;;;15.00;;
18125;SDS011;53956;52.442;13.284;2023-04-06T05:54:59;18.70;;;14.37;;
18125;SDS011;53956;52.442;13.284;2023-04-06T05:57:26;17.23;;;14.63;;
18125;SDS011;53956;52.442;13.284;2023-04-06T05:59:53;15.47;;;13.57;;
18125;SDS011;53956;52.442;13.284;2023-04-06T06:02:23;22.63;;;13.20;;
18125;SDS011;53956;52.442;13.284;2023-04-06T06:04:52;21.30;;;13.18;;
18125;SDS011;53956;52.442;13.284;2023-04-06T06:07:19;28.20;;;12.80;;
18125;SDS011;53956;52.442;13.284;2023-04-06T06:09:55;17.52;;;12.52;;
18125;SDS011;53956;52.442;13.284;2023-04-06T06:12:27;15.90;;;11.80;;
18125;SDS011;53956;52.442;13.284;2023-04-06T06:14:55;14.93;;;11.38;;
18125;SDS011;53956;52.442;13.284;2023-04-06T06:17:25;15.38;;;11.55;;
18125;SDS011;53956;52.442;13.284;2023-04-06T06:19:51;15.15;;;11.35;;
18125;SDS011;53956;52.442;13.284;2023-04-06T06:22:18;13.65;;;10.85;;
18125;SDS011;53956;52.442;13.284;2023-04-06T06:24:46;14.35;;;10.38;;
18125;SDS011;53956;52.442;13.284;2023-04-06T06:27:17;11.95;;;9.90;;
18125;SDS011;53956;52.442;13.284;2023-04-06T06:29:44;15.88;;;10.65;;
18125;SDS011;53956;52.442;13.284;2023-04-06T06:32:10;13.40;;;9.90;;
18125;SDS011;53956;52.442;13.284;2023-04-06T06:34:40;12.43;;;9.20;;
18125;SDS011;53956;52.442;13.284;2023-04-06T06:37:09;12.07;;;9.07;;
18125;SDS011;53956;52.442;13.284;2023-04-06T06:39:37;18.85;;;9.23;;
18125;SDS011;53956;52.442;13.284;2023-04-06T06:42:04;13.05;;;8.50;;
18125;SDS011;53956;52.442;13.284;2023-04-06T06:45:03;11.85;;;8.25;;
18125;SDS011;53956;52.442;13.284;2023-04-06T06:47:31;13.02;;;8.25;;
18125;SDS011;53956;52.442;13.284;2023-04-06T06:49:59;9.77;;;7.20;;
18125;SDS011;53956;52.442;13.284;2023-04-06T06:52:26;14.60;;;7.15;;
18125;SDS011;53956;52.442;13.284;2023-04-06T06:54:53;8.82;;;7.00;;
18125;SDS011;53956;52.442;13.284;2023-04-06T06:57:21;10.15;;;6.97;;
18125;SDS011;53956;52.442;13.284;2023-04-06T06:59:49;11.00;;;6.63;;
18125;SDS011;53956;52.442;13.284;2023-04-06T07:02:17;8.18;;;6.15;;
18125;SDS011;53956;52.442;13.284;2023-04-06T07:04:47;9.32;;;6.13;;
18125;SDS011;53956;52.442;13.284;2023-04-06T07:07:15;9.30;;;6.18;;
18125;SDS011;53956;52.442;13.284;2023-04-06T07:09:42;8.80;;;6.50;;
18125;SDS011;53956;52.442;13.284;2023-04-06T07:12:08;7.28;;;5.82;;
18125;SDS011;53956;52.442;13.284;2023-04-06T07:14:35;10.63;;;6.35;;
18125;SDS011;53956;52.442;13.284;2023-04-06T07:17:02;12.38;;;6.70;;
18125;SDS011;53956;52.442;13.284;2023-04-06T07:19:30;9.10;;;6.05;;
18125;SDS011;53956;52.442;13.284;2023-04-06T07:21:57;7.18;;;5.78;;
18125;SDS011;53956;52.442;13.284;2023-04-06T07:24:26;8.88;;;6.28;;
18125;SDS011;53956;52.442;13.284;2023-04-06T07:26:53;8.77;;;6.10;;
18125;SDS011;53956;52.442;13.284;2023-04-06T07:29:20;7.63;;;5.65;;
18125;SDS011;53956;52.442;13.284;2023-04-06T07:31:48;9.10;;;5.82;;
18125;SDS011;53956;52.442;13.284;2023-04-06T07:34:15;12.07;;;5.85;;
18125;SDS011;53956;52.442;13.284;2023-04-06T07:36:42;13.77;;;5.68;;
18125;SDS011;53956;52.442;13.284;2023-04-06T07:39:09;7.25;;;5.60;;
18125;SDS011;53956;52.442;13.284;2023-04-06T07:41:38;8.43;;;5.07;;
18125;SDS011;53956;52.442;13.284;2023-04-06T07:44:05;7.82;;;5.13;;
18125;SDS011;53956;52.442;13.284;2023-04-06T07:46:32;8.45;;;5.40;;
18125;SDS011;53956;52.442;13.284;2023-04-06T07:49:00;7.97;;;5.93;;
18125;SDS011;53956;52.442;13.284;2023-04-06T07:51:29;7.50;;;5.57;;
18125;SDS011;53956;52.442;13.284;2023-04-06T07:53:56;8.63;;;4.95;;
18125;SDS011;53956;52.442;13.284;2023-04-06T07:56:23;9.65;;;5.65;;
18125;SDS011;53956;52.442;13.284;2023-04-06T07:58:51;7.57;;;5.38;;
18125;SDS011;53956;52.442;13.284;2023-04-06T08:01:20;7.10;;;5.55;;
18125;SDS011;53956;52.442;13.284;2023-04-06T08:03:47;8.88;;;5.70;;
18125;SDS011;53956;52.442;13.284;2023-04-06T08:06:13;7.95;;;5.68;;
18125;SDS011;53956;52.442;13.284;2023-04-06T08:08:40;9.02;;;6.13;;
18125;SDS011;53956;52.442;13.284;2023-04-06T08:11:07;11.60;;;5.60;;
18125;SDS011;53956;52.442;13.284;2023-04-06T08:13:34;10.07;;;5.90;;
18125;SDS011;53956;52.442;13.284;2023-04-06T08:16:02;7.20;;;5.07;;
18125;SDS011;53956;52.442;13.284;2023-04-06T08:18:29;10.07;;;5.28;;
18125;SDS011;53956;52.442;13.284;2023-04-06T08:20:56;7.63;;;5.22;;
18125;SDS011;53956;52.442;13.284;2023-04-06T08:23:23;11.02;;;5.95;;
18125;SDS011;53956;52.442;13.284;2023-04-06T08:25:50;9.23;;;6.18;;
18125;SDS011;53956;52.442;13.284;2023-04-06T08:28:19;8.38;;;5.78;;
18125;SDS011;53956;52.442;13.284;2023-04-06T08:30:45;8.55;;;5.22;;
18125;SDS011;53956;52.442;13.284;2023-04-06T08:33:14;6.53;;;4.85;;
18125;SDS011;53956;52.442;13.284;2023-04-06T08:35:41;8.85;;;4.75;;
18125;SDS011;53956;52.442;13.284;2023-04-06T08:38:07;7.75;;;4.78;;
18125;SDS011;53956;52.442;13.284;2023-04-06T08:40:35;6.50;;;4.43;;
18125;SDS011;53956;52.442;13.284;2023-04-06T08:43:03;6.30;;;4.07;;
18125;SDS011;53956;52.442;13.284;2023-04-06T08:45:35;5.57;;;3.75;;
18125;SDS011;53956;52.442;13.284;2023-04-06T08:48:02;5.80;;;4.55;;
18125;SDS011;53956;52.442;13.284;2023-04-06T08:50:31;5.47;;;4.18;;
18125;SDS011;53956;52.442;13.284;2023-04-06T08:52:59;6.20;;;4.20;;
18125;SDS011;53956;52.442;13.284;2023-04-06T08:55:26;5.55;;;3.95;;
18125;SDS011;53956;52.442;13.284;2023-04-06T08:57:53;7.03;;;4.30;;
18125;SDS011;53956;52.442;13.284;2023-04-06T09:00:21;6.90;;;4.60;;
18125;SDS011;53956;52.442;13.284;2023-04-06T09:02:50;7.43;;;4.30;;
18125;SDS011;53956;52.442;13.284;2023-04-06T09:05:19;5.80;;;4.30;;
18125;SDS011;53956;52.442;13.284;2023-04-06T09:07:48;7.68;;;4.47;;
18125;SDS011;53956;52.442;13.284;2023-04-06T09:10:15;7.53;;;4.47;;
18125;SDS011;53956;52.442;13.284;2023-04-06T09:12:43;6.83;;;3.90;;
18125;SDS011;53956;52.442;13.284;2023-04-06T09:15:17;6.82;;;4.00;;
18125;SDS011;53956;52.442;13.284;2023-04-06T09:17:45;6.33;;;4.00;;
18125;SDS011;53956;52.442;13.284;2023-04-06T09:20:12;6.80;;;4.05;;
18125;SDS011;53956;52.442;13.284;2023-04-06T09:22:39;5.43;;;4.40;;
18125;SDS011;53956;52.442;13.284;2023-04-06T09:25:08;8.43;;;3.97;;
18125;SDS011;53956;52.442;13.284;2023-04-06T09:27:36;9.77;;;3.80;;
18125;SDS011;53956;52.442;13.284;2023-04-06T09:30:05;5.63;;;3.70;;
18125;SDS011;53956;52.442;13.284;2023-04-06T09:32:33;5.60;;;4.37;;
18125;SDS011;53956;52.442;13.284;2023-04-06T09:35:11;5.73;;;4.23;;
18125;SDS011;53956;52.442;13.284;2023-04-06T09:37:37;9.60;;;4.50;;
18125;SDS011;53956;52.442;13.284;2023-04-06T09:40:05;8.23;;;4.10;;
18125;SDS011;53956;52.442;13.284;2023-04-06T09:42:34;5.10;;;3.80;;
18125;SDS011;53956;52.442;13.284;2023-04-06T09:45:01;5.63;;;4.10;;
18125;SDS011;53956;52.442;13.284;2023-04-06T09:47:28;6.37;;;4.47;;
18125;SDS011;53956;52.442;13.284;2023-04-06T09:49:56;5.67;;;4.30;;
18125;SDS011;53956;52.442;13.284;2023-04-06T09:52:26;6.37;;;4.40;;
18125;SDS011;53956;52.442;13.284;2023-04-06T09:54:55;7.60;;;4.43;;
18125;SDS011;53956;52.442;13.284;2023-04-06T09:57:25;7.40;;;4.30;;
18125;SDS011;53956;52.442;13.284;2023-04-06T09:59:57;5.80;;;4.23;;
18125;SDS011;53956;52.442;13.284;2023-04-06T10:02:35;7.13;;;4.73;;
18125;SDS011;53956;52.442;13.284;2023-04-06T10:05:12;6.47;;;4.00;;
18125;SDS011;53956;52.442;13.284;2023-04-06T10:07:45;7.70;;;3.97;;
18125;SDS011;53956;52.442;13.284;2023-04-06T10:10:15;6.03;;;3.80;;
18125;SDS011;53956;52.442;13.284;2023-04-06T10:12:42;6.40;;;3.87;;
18125;SDS011;53956;52.442;13.284;2023-04-06T10:15:11;5.40;;;3.63;;
18125;SDS011;53956;52.442;13.284;2023-04-06T10:17:38;7.00;;;3.60;;
18125;SDS011;53956;52.442;13.284;2023-04-06T10:20:06;4.37;;;3.53;;
18125;SDS011;53956;52.442;13.284;2023-04-06T10:22:39;6.33;;;4.10;;
18125;SDS011;53956;52.442;13.284;2023-04-06T10:25:10;5.20;;;4.07;;
18125;SDS011;53956;52.442;13.284;2023-04-06T10:27:37;5.40;;;3.50;;
18125;SDS011;53956;52.442;13.284;2023-04-06T10:30:04;6.20;;;3.90;;
18125;SDS011;53956;52.442;13.284;2023-04-06T10:32:34;6.47;;;4.23;;
18125;SDS011;53956;52.442;13.284;2023-04-06T10:35:05;7.30;;;4.00;;
18125;SDS011;53956;52.442;13.284;2023-04-06T10:37:45;5.03;;;3.90;;
18125;SDS011;53956;52.442;13.284;2023-04-06T10:40:17;6.27;;;4.50;;
18125;SDS011;53956;52.442;13.284;2023-04-06T10:42:45;4.70;;;4.07;;
18125;SDS011;53956;52.442;13.284;2023-04-06T10:45:18;6.03;;;4.23;;
18125;SDS011;53956;52.442;13.284;2023-04-06T10:47:47;4.93;;;4.20;;
18125;SDS011;53956;52.442;13.284;2023-04-06T10:50:14;4.67;;;4.20;;
18125;SDS011;53956;52.442;13.284;2023-04-06T10:52:42;5.63;;;4.00;;
18125;SDS011;53956;52.442;13.284;2023-04-06T10:55:10;5.17;;;3.93;;
18125;SDS011;53956;52.442;13.284;2023-04-06T10:57:38;4.50;;;3.80;;
18125;SDS011;53956;52.442;13.284;2023-04-06T11:00:06;6.00;;;4.10;;
18125;SDS011;53956;52.442;13.284;2023-04-06T11:02:34;6.17;;;4.70;;
18125;SDS011;53956;52.442;13.284;2023-04-06T11:05:02;5.83;;;4.17;;
18125;SDS011;53956;52.442;13.284;2023-04-06T11:07:29;7.00;;;4.50;;
18125;SDS011;53956;52.442;13.284;2023-04-06T11:09:56;5.13;;;4.53;;
18125;SDS011;53956;52.442;13.284;2023-04-06T11:12:23;5.53;;;4.40;;
18125;SDS011;53956;52.442;13.284;2023-04-06T11:14:54;7.57;;;4.47;;
18125;SDS011;53956;52.442;13.284;2023-04-06T11:17:26;6.77;;;4.33;;
18125;SDS011;53956;52.442;13.284;2023-04-06T11:19:53;6.30;;;4.23;;
18125;SDS011;53956;52.442;13.284;2023-04-06T11:22:21;4.90;;;4.23;;
18125;SDS011;53956;52.442;13.284;2023-04-06T11:24:48;7.67;;;4.73;;
18125;SDS011;53956;52.442;13.284;2023-04-06T11:27:15;6.43;;;4.60;;
18125;SDS011;53956;52.442;13.284;2023-04-06T11:29:42;5.60;;;4.10;;
18125;SDS011;53956;52.442;13.284;2023-04-06T11:32:11;6.47;;;4.47;;
18125;SDS011;53956;52.442;13.284;2023-04-06T11:34:45;4.43;;;3.90;;
18125;SDS011;53956;52.442;13.284;2023-04-06T11:37:13;5.67;;;4.40;;
18125;SDS011;53956;52.442;13.284;2023-04-06T11:39:43;8.17;;;4.77;;
18125;SDS011;53956;52.442;13.284;2023-04-06T11:42:20;7.37;;;4.97;;
18125;SDS011;53956;52.442;13.284;2023-04-06T11:44:49;6.67;;;5.23;;
18125;SDS011;53956;52.442;13.284;2023-04-06T11:47:17;5.50;;;4.90;;
18125;SDS011;53956;52.442;13.284;2023-04-06T11:49:45;7.67;;;4.87;;
18125;SDS011;53956;52.442;13.284;2023-04-06T11:52:15;6.33;;;5.27;;
18125;SDS011;53956;52.442;13.284;2023-04-06T11:54:45;5.43;;;4.90;;
18125;SDS011;53956;52.442;13.284;2023-04-06T11:57:12;6.73;;;5.27;;
18125;SDS011;53956;52.442;13.284;2023-04-06T11:59:39;7.53;;;4.87;;
18125;SDS011;53956;52.442;13.284;2023-04-06T12:02:06;6.87;;;5.17;;
18125;SDS011;53956;52.442;13.284;2023-04-06T12:04:33;6.70;;;4.70;;
18125;SDS011;53956;52.442;13.284;2023-04-06T12:07:00;5.13;;;4.63;;
18125;SDS011;53956;52.442;13.284;2023-04-06T12:09:27;5.97;;;5.13;;
18125;SDS011;53956;52.442;13.284;2023-04-06T12:11:55;6.20;;;4.87;;
18125;SDS011;53956;52.442;13.284;2023-04-06T12:14:22;5.70;;;4.50;;
18125;SDS011;53956;52.442;13.284;2023-04-06T12:16:49;6.87;;;4.90;;
18125;SDS011;53956;52.442;13.284;2023-04-06T12:19:16;5.70;;;4.80;;
18125;SDS011;53956;52.442;13.284;2023-04-06T12:21:43;5.83;;;4.83;;
18125;SDS011;53956;52.442;13.284;2023-04-06T12:24:09;6.10;;;5.30;;
18125;SDS011;53956;52.442;13.284;2023-04-06T12:26:36;6.17;;;4.90;;
18125;SDS011;53956;52.442;13.284;2023-04-06T12:29:04;6.80;;;4.60;;
18125;SDS011;53956;52.442;13.284;2023-04-06T12:31:32;6.00;;;5.10;;
18125;SDS011;53956;52.442;13.284;2023-04-06T12:33:59;5.70;;;5.00;;
18125;SDS011;53956;52.442;13.284;2023-04-06T12:36:27;6.30;;;4.93;;
18125;SDS011;53956;52.442;13.284;2023-04-06T12:38:54;6.07;;;5.03;;
18125;SDS011;53956;52.442;13.284;2023-04-06T12:41:21;8.23;;;5.07;;
18125;SDS011;53956;52.442;13.284;2023-04-06T12:43:48;8.10;;;5.37;;
18125;SDS011;53956;52.442;13.284;2023-04-06T12:46:16;7.63;;;5.33;;
18125;SDS011;53956;52.442;13.284;2023-04-06T12:48:43;7.43;;;5.40;;
18125;SDS011;53956;52.442;13.284;2023-04-06T12:51:10;6.83;;;5.50;;
18125;SDS011;53956;52.442;13.284;2023-04-06T12:53:37;6.63;;;4.90;;
18125;SDS011;53956;52.442;13.284;2023-04-06T12:56:10;5.47;;;4.53;;
18125;SDS011;53956;52.442;13.284;2023-04-06T12:58:38;5.10;;;4.60;;
18125;SDS011;53956;52.442;13.284;2023-04-06T13:01:05;6.47;;;4.90;;
18125;SDS011;53956;52.442;13.284;2023-04-06T13:03:34;7.87;;;5.00;;
18125;SDS011;53956;52.442;13.284;2023-04-06T13:06:01;6.97;;;4.67;;
18125;SDS011;53956;52.442;13.284;2023-04-06T13:08:28;6.77;;;5.47;;
18125;SDS011;53956;52.442;13.284;2023-04-06T13:10:55;7.60;;;4.90;;
18125;SDS011;53956;52.442;13.284;2023-04-06T13:13:22;6.43;;;4.70;;
18125;SDS011;53956;52.442;13.284;2023-04-06T13:15:50;6.13;;;3.83;;
18125;SDS011;53956;52.442;13.284;2023-04-06T13:18:17;5.63;;;4.50;;
18125;SDS011;53956;52.442;13.284;2023-04-06T13:20:46;7.00;;;4.80;;
18125;SDS011;53956;52.442;13.284;2023-04-06T13:23:12;4.93;;;4.40;;
18125;SDS011;53956;52.442;13.284;2023-04-06T13:25:39;7.13;;;5.20;;
18125;SDS011;53956;52.442;13.284;2023-04-06T13:28:06;5.77;;;5.20;;
18125;SDS011;53956;52.442;13.284;2023-04-06T13:30:33;5.50;;;4.23;;
18125;SDS011;53956;52.442;13.284;2023-04-06T13:33:00;4.90;;;4.40;;
18125;SDS011;53956;52.442;13.284;2023-04-06T13:35:27;4.97;;;4.47;;
18125;SDS011;53956;52.442;13.284;2023-04-06T13:37:55;5.77;;;4.83;;
18125;SDS011;53956;52.442;13.284;2023-04-06T13:40:21;5.27;;;4.77;;
18125;SDS011;53956;52.442;13.284;2023-04-06T13:42:48;5.93;;;5.00;;
18125;SDS011;53956;52.442;13.284;2023-04-06T13:45:15;5.40;;;4.90;;
18125;SDS011;53956;52.442;13.284;2023-04-06T13:47:42;6.67;;;5.40;;
18125;SDS011;53956;52.442;13.284;2023-04-06T13:50:09;7.23;;;4.67;;
18125;SDS011;53956;52.442;13.284;2023-04-06T13:52:36;7.73;;;4.80;;
18125;SDS011;53956;52.442;13.284;2023-04-06T13:55:04;6.87;;;5.77;;
18125;SDS011;53956;52.442;13.284;2023-04-06T13:57:31;6.23;;;5.60;;
18125;SDS011;53956;52.442;13.284;2023-04-06T13:59:58;7.07;;;5.60;;
18125;SDS011;53956;52.442;13.284;2023-04-06T14:02:25;5.97;;;5.30;;
18125;SDS011;53956;52.442;13.284;2023-04-06T14:04:52;7.73;;;5.43;;
18125;SDS011;53956;52.442;13.284;2023-04-06T14:07:20;7.73;;;5.93;;
18125;SDS011;53956;52.442;13.284;2023-04-06T14:09:47;7.60;;;6.10;;
18125;SDS011;53956;52.442;13.284;2023-04-06T14:12:14;6.17;;;5.20;;
18125;SDS011;53956;52.442;13.284;2023-04-06T14:14:41;5.70;;;5.00;;
18125;SDS011;53956;52.442;13.284;2023-04-06T14:17:08;6.87;;;4.90;;
18125;SDS011;53956;52.442;13.284;2023-04-06T14:19:35;7.00;;;5.00;;
18125;SDS011;53956;52.442;13.284;2023-04-06T14:22:01;5.93;;;4.70;;
18125;SDS011;53956;52.442;13.284;2023-04-06T14:24:29;5.93;;;4.70;;
18125;SDS011;53956;52.442;13.284;2023-04-06T14:26:55;7.23;;;5.70;;
18125;SDS011;53956;52.442;13.284;2023-04-06T14:29:24;6.20;;;5.60;;
18125;SDS011;53956;52.442;13.284;2023-04-06T14:31:51;7.77;;;5.80;;
18125;SDS011;53956;52.442;13.284;2023-04-06T14:34:17;6.07;;;5.20;;
18125;SDS011;53956;52.442;13.284;2023-04-06T14:36:44;8.47;;;5.90;;